Time;durP1;ratioP1;P1;durP2;ratioP2;P2;SDS_P1;SDS_P2;PMS_P1;PMS_P2;Temp;Humidity;BMP_temperature;BMP_pressure;BME280_temperature;BME280_humidity;BME280_pressure;Samples;Min_cycle;Max_cycle;Signal;HPM_P1;HPM_P2
2023/03/19 00:01:23;;;;;;;48.00;22.10;;;;;;;1.08;95.37;101814.17;107349;1253;69167;-82
2023/03/19 00:03:53;;;;;;;45.70;22.50;;;;;;;1.05;95.41;101811.13;107392;1245;73286;-82
2023/03/19 00:06:21;;;;;;;45.20;23.00;;;;;;;1.02;95.84;101811.00;107489;1245;62623;-81
2023/03/19 00:08:50;;;;;;;45.80;21.70;;;;;;;0.98;95.51;101808.48;107671;1252;59549;-82
2023/03/19 00:11:19;;;;;;;46.50;23.70;;;;;;;0.94;95.08;101807.50;109154;1242;74083;-82
2023/03/19 00:13:48;;;;;;;46.20;22.50;;;;;;;0.92;95.84;101804.30;108959;1241;72704;-80
2023/03/19 00:16:17;;;;;;;44.00;21.90;;;;;;;0.89;95.82;101805.00;109173;1241;68333;-81
2023/03/19 00:18:46;;;;;;;44.70;23.80;;;;;;;0.88;96.29;101804.17;109209;1246;71149;-81
2023/03/19 00:21:16;;;;;;;48.00;23.50;;;;;;;0.88;96.82;101800.23;107914;1252;60474;-80
2023/03/19 00:23:45;;;;;;;44.60;22.10;;;;;;;0.87;96.99;101798.20;107617;1242;61069;-81
2023/03/19 00:26:14;;;;;;;41.50;20.30;;;;;;;0.84;96.80;101797.55;107549;1255;73208;-82
2023/03/19 00:28:43;;;;;;;41.80;21.00;;;;;;;0.80;97.48;101798.64;107491;1242;69833;-82
2023/03/19 00:31:15;;;;;;;43.90;20.30;;;;;;;0.76;97.59;101797.65;108088;1244;70506;-80
2023/03/19 00:33:44;;;;;;;45.90;21.60;;;;;;;0.74;97.35;101796.83;108096;1240;72190;-80
2023/03/19 00:36:15;;;;;;;44.00;21.10;;;;;;;0.70;97.59;101796.04;108057;1239;61017;-81
2023/03/19 00:38:45;;;;;;;42.70;20.50;;;;;;;0.67;97.99;101794.55;107911;1236;61574;-83
2023/03/19 00:41:16;;;;;;;42.30;20.90;;;;;;;0.63;98.14;101792.18;108081;1236;72231;-80
2023/03/19 00:43:46;;;;;;;48.10;22.20;;;;;;;0.58;97.72;101787.28;108117;1240;72090;-82
2023/03/19 00:46:15;;;;;;;38.90;20.90;;;;;;;0.55;97.46;101785.42;108153;1235;70759;-82
2023/03/19 00:48:44;;;;;;;46.20;24.50;;;;;;;0.53;97.62;101784.63;108090;1239;71571;-82
2023/03/19 00:51:13;;;;;;;47.00;23.40;;;;;;;0.49;97.56;101783.11;107816;1243;61999;-82
2023/03/19 00:53:43;;;;;;;42.40;21.40;;;;;;;0.44;97.13;101782.32;108201;1235;61493;-83
2023/03/19 00:56:15;;;;;;;45.20;22.50;;;;;;;0.40;96.80;101777.93;108132;1247;71277;-83
2023/03/19 00:58:44;;;;;;;43.90;22.70;;;;;;;0.36;97.45;101779.52;107974;1245;71386;-84
2023/03/19 01:01:16;;;;;;;46.90;22.60;;;;;;;0.35;97.48;101782.11;108107;1239;68274;-82
2023/03/19 01:03:46;;;;;;;54.50;24.90;;;;;;;0.36;98.81;101783.98;108153;1238;70880;-85
2023/03/19 01:06:14;;;;;;;47.00;22.20;;;;;;;0.36;99.46;101779.18;108044;1246;62434;-85
2023/03/19 01:08:43;;;;;;;53.20;24.20;;;;;;;0.34;99.16;101780.23;108080;1240;61708;-82
2023/03/19 01:11:14;;;;;;;48.00;23.40;;;;;;;0.32;98.72;101780.60;108055;1239;71412;-80
2023/03/19 01:13:43;;;;;;;53.40;24.30;;;;;;;0.27;97.73;101777.92;108103;1237;71314;-83
2023/03/19 01:16:11;;;;;;;52.90;25.90;;;;;;;0.23;98.22;101781.05;108005;1235;70350;-81
2023/03/19 01:18:40;;;;;;;52.30;24.70;;;;;;;0.21;98.75;101779.88;107856;1247;73723;-83
2023/03/19 01:21:09;;;;;;;54.20;26.50;;;;;;;0.17;98.49;101778.39;108025;1246;59836;-82
2023/03/19 01:23:44;;;;;;;51.20;24.10;;;;;;;0.14;98.36;101779.29;108123;1247;60185;-82
2023/03/19 01:26:13;;;;;;;45.80;22.70;;;;;;;0.11;98.51;101778.98;108069;1239;72254;-80
2023/03/19 01:28:42;;;;;;;49.10;23.70;;;;;;;0.07;98.91;101777.49;108084;1239;70220;-81
2023/03/19 01:31:12;;;;;;;51.30;25.30;;;;;;;0.05;99.30;101773.21;108064;1246;67880;-82
2023/03/19 01:33:55;;;;;;;;;;;;;;;0.02;99.12;101773.62;107898;1247;73069;-84
2023/03/19 01:36:35;;;;;;;42.10;20.80;;;;;;;-0.01;99.59;101776.04;108125;1245;61123;-83
2023/03/19 01:39:06;;;;;;;50.00;21.40;;;;;;;-0.03;99.47;101779.48;108167;1239;59318;-83
2023/03/19 01:41:35;;;;;;;44.60;21.80;;;;;;;-0.04;99.74;101777.63;107831;1241;72801;-84
2023/03/19 01:44:36;;;;;;;45.40;21.60;;;;;;;-0.04;99.99;101777.80;108010;1240;69941;-79
2023/03/19 01:47:35;;;;;;;43.60;22.00;;;;;;;-0.07;99.82;101776.63;107863;1244;69835;-79
2023/03/19 01:50:42;;;;;;;41.10;21.10;;;;;;;-0.09;99.59;101774.42;108102;1247;72274;-81
2023/03/19 01:53:26;;;;;;;39.60;20.90;;;;;;;-0.12;99.64;101773.95;107996;1247;61069;-80
2023/03/19 01:56:51;;;;;;;44.10;22.30;;;;;;;-0.11;100.00;101775.65;108110;1239;59027;-81
2023/03/19 01:59:40;;;;;;;44.50;20.70;;;;;;;-0.11;99.99;101774.28;108075;1235;70743;-80
2023/03/19 02:02:58;;;;;;;39.60;19.50;;;;;;;-0.16;99.31;101772.28;108232;1235;69628;-81
2023/03/19 02:05:52;;;;;;;51.80;26.20;;;;;;;-0.19;99.35;101772.98;108183;1238;70143;-80
2023/03/19 02:08:23;;;;;;;53.40;24.10;;;;;;;-0.17;100.00;101773.32;108130;1239;72161;-80
2023/03/19 02:10:54;;;;;;;57.00;25.50;;;;;;;-0.18;99.96;101774.35;107874;1242;59707;-82
2023/03/19 02:13:23;;;;;;;60.20;26.60;;;;;;;-0.19;99.83;101778.46;108140;1240;58934;-81
2023/03/19 02:15:53;;;;;;;54.50;24.40;;;;;;;-0.20;100.00;101776.60;108010;1239;71521;-81
2023/03/19 02:18:24;;;;;;;45.70;22.00;;;;;;;-0.19;100.00;101775.73;108080;1247;72128;-81
2023/03/19 02:21:16;;;;;;;41.30;22.10;;;;;;;-0.21;100.00;101775.41;108091;1239;68403;-81
2023/03/19 02:24:06;;;;;;;48.20;21.40;;;;;;;-0.23;100.00;101774.73;108233;1242;73016;-83
2023/03/19 02:26:50;;;;;;;37.40;20.70;;;;;;;-0.22;100.00;101771.66;108137;1235;61540;-79
2023/03/19 02:29:19;;;;;;;41.60;19.80;;;;;;;-0.18;99.96;101772.47;108388;1235;59936;-79
2023/03/19 02:31:48;;;;;;;41.80;19.70;;;;;;;-0.15;99.76;101771.75;108248;1245;72496;-81
2023/03/19 02:34:20;;;;;;;41.00;20.50;;;;;;;-0.09;99.70;101774.42;108049;1238;70183;-85
2023/03/19 02:37:05;;;;;;;43.30;20.80;;;;;;;0.00;100.00;101773.97;108038;1235;68624;-85
2023/03/19 02:40:06;;;;;;;40.40;20.30;;;;;;;0.11;99.95;101776.59;107806;1246;71068;-82
2023/03/19 02:42:35;;;;;;;40.80;20.80;;;;;;;0.21;99.83;101779.88;107955;1236;59623;-82
2023/03/19 02:45:06;;;;;;;43.70;21.60;;;;;;;0.31;100.00;101778.39;107981;1236;58815;-81
2023/03/19 02:47:35;;;;;;;46.10;22.90;;;;;;;0.41;99.99;101776.20;107905;1246;72647;-83
2023/03/19 02:50:04;;;;;;;45.00;22.20;;;;;;;0.50;99.94;101778.83;107905;1246;73576;-81
2023/03/19 02:52:33;;;;;;;43.50;21.40;;;;;;;0.58;100.00;101775.80;107907;1239;70311;-81
2023/03/19 02:55:02;;;;;;;47.10;23.00;;;;;;;0.66;99.98;101775.17;108046;1243;71201;-81
2023/03/19 02:57:31;;;;;;;48.10;21.90;;;;;;;0.73;99.93;101775.24;108002;1239;60434;-81
2023/03/19 03:00:00;;;;;;;44.40;20.50;;;;;;;0.80;99.70;101773.77;108014;1247;59884;-85
2023/03/19 03:02:30;;;;;;;44.60;20.20;;;;;;;0.87;99.38;101775.20;108046;1236;72616;-84
2023/03/19 03:04:59;;;;;;;46.50;21.60;;;;;;;0.95;99.03;101776.45;107895;1235;68902;-82
2023/03/19 03:07:28;;;;;;;41.70;19.90;;;;;;;1.02;99.01;101776.02;107394;1246;351769;-81
2023/03/19 03:09:58;;;;;;;38.80;20.80;;;;;;;1.09;98.97;101772.13;108069;1236;73004;-82
2023/03/19 03:12:27;;;;;;;40.30;19.20;;;;;;;1.15;98.73;101772.71;107890;1235;61660;-83
2023/03/19 03:14:55;;;;;;;42.90;19.90;;;;;;;1.19;98.11;101776.93;108029;1239;59994;-82
2023/03/19 03:17:24;;;;;;;40.40;20.60;;;;;;;1.25;97.71;101780.27;108333;1246;71766;-81
2023/03/19 03:19:53;;;;;;;39.10;20.30;;;;;;;1.30;97.60;101777.27;108982;1238;69450;-79
2023/03/19 03:22:22;;;;;;;44.60;20.50;;;;;;;1.36;97.93;101776.30;109043;1235;69800;-80
2023/03/19 03:24:51;;;;;;;40.30;20.10;;;;;;;1.44;97.91;101775.99;108382;1244;74119;-80
2023/03/19 03:27:19;;;;;;;43.60;21.30;;;;;;;1.53;97.40;101778.75;107957;1246;61793;-86
2023/03/19 03:29:48;;;;;;;42.40;21.10;;;;;;;1.60;97.58;101776.39;108203;1236;58832;-82
2023/03/19 03:32:17;;;;;;;48.50;24.20;;;;;;;1.66;97.57;101777.49;108241;1236;62925;-84
2023/03/19 03:34:46;;;;;;;53.30;25.40;;;;;;;1.72;97.34;101779.95;108430;1246;71112;-81
2023/03/19 03:37:16;;;;;;;52.90;26.70;;;;;;;1.77;97.90;101776.23;108072;1244;70339;-82
2023/03/19 03:39:45;;;;;;;48.70;25.20;;;;;;;1.81;97.49;101778.73;108011;1235;74508;-81
2023/03/19 03:42:14;;;;;;;47.00;25.00;;;;;;;1.80;97.73;101778.41;108021;1239;61672;-82
2023/03/19 03:44:43;;;;;;;46.90;22.80;;;;;;;1.82;97.20;101774.44;108008;1235;59968;-81
2023/03/19 03:47:12;;;;;;;46.50;22.50;;;;;;;1.88;96.79;101775.69;108176;1234;73179;-86
2023/03/19 03:49:41;;;;;;;46.10;23.40;;;;;;;1.94;96.75;101771.45;107987;1235;70753;-84
2023/03/19 03:52:10;;;;;;;45.50;23.70;;;;;;;1.98;96.42;101772.05;107968;1238;70043;-85
2023/03/19 03:54:39;;;;;;;51.70;25.40;;;;;;;2.02;96.75;101770.27;107744;1238;74161;-83
2023/03/19 03:57:08;;;;;;;54.80;27.70;;;;;;;2.09;96.52;101770.81;108095;1246;60826;-85
2023/03/19 03:59:37;;;;;;;51.50;24.20;;;;;;;2.15;96.51;101772.41;107995;1239;58986;-81
2023/03/19 04:02:06;;;;;;;42.80;23.40;;;;;;;2.20;96.36;101769.05;108025;1235;62921;-86
2023/03/19 04:04:35;;;;;;;48.60;25.80;;;;;;;2.25;96.20;101767.22;108160;1236;70605;-83
2023/03/19 04:07:04;;;;;;;46.20;24.10;;;;;;;2.28;96.02;101765.27;108016;1239;69675;-84
2023/03/19 04:09:40;;;;;;;48.20;25.00;;;;;;;2.31;95.84;101765.35;108133;1245;71986;-83
2023/03/19 04:12:10;;;;;;;58.70;26.90;;;;;;;2.34;95.71;101767.20;108160;1236;61731;-82
2023/03/19 04:14:39;;;;;;;51.40;26.30;;;;;;;2.38;95.68;101769.86;108042;1247;61015;-82
2023/03/19 04:17:08;;;;;;;53.90;26.20;;;;;;;2.41;95.84;101768.25;108019;1239;63501;-83
2023/03/19 04:19:38;;;;;;;52.60;26.50;;;;;;;2.44;95.95;101772.83;107900;1239;60902;-82
2023/03/19 04:22:07;;;;;;;55.40;27.80;;;;;;;2.49;95.94;101775.81;108085;1235;67316;-82
2023/03/19 04:24:36;;;;;;;55.30;29.00;;;;;;;2.52;96.19;101775.58;108099;1242;73751;-82
2023/03/19 04:27:07;;;;;;;54.90;28.80;;;;;;;2.51;95.87;101776.81;107813;1239;57515;-80
2023/03/19 04:29:36;;;;;;;55.40;27.20;;;;;;;2.53;95.93;101775.71;108093;1240;59039;-81
2023/03/19 04:32:06;;;;;;;53.30;27.10;;;;;;;2.57;95.84;101773.75;108142;1239;62938;-83
2023/03/19 04:34:36;;;;;;;52.90;27.20;;;;;;;2.62;95.56;101771.73;107902;1242;60898;-83
2023/03/19 04:37:05;;;;;;;52.40;27.40;;;;;;;2.66;95.58;101768.55;108038;1241;70496;-83
2023/03/19 04:39:36;;;;;;;56.30;29.70;;;;;;;2.66;94.86;101764.44;108001;1239;73664;-82
2023/03/19 04:42:05;;;;;;;59.70;30.10;;;;;;;2.73;94.85;101773.38;108207;1241;59105;-81
2023/03/19 04:44:37;;;;;;;58.50;30.40;;;;;;;2.80;94.30;101778.58;108005;1235;60578;-80
2023/03/19 04:47:06;;;;;;;61.90;28.80;;;;;;;2.79;93.61;101778.77;108029;1247;62603;-81
2023/03/19 04:49:46;;;;;;;52.50;26.90;;;;;;;2.79;93.00;101778.42;107965;1239;60851;-81
2023/03/19 04:52:16;;;;;;;58.60;29.70;;;;;;;2.78;92.59;101782.91;108081;1247;69773;-82
2023/03/19 04:54:45;;;;;;;54.80;27.90;;;;;;;2.77;92.31;101780.69;108125;1239;72216;-82
2023/03/19 04:57:14;;;;;;;58.40;27.80;;;;;;;2.81;92.21;101781.44;108242;1245;57568;-82
2023/03/19 04:59:43;;;;;;;60.50;29.50;;;;;;;2.83;91.91;101783.64;108128;1246;60308;-81
2023/03/19 05:02:14;;;;;;;57.70;27.90;;;;;;;2.91;92.25;101782.10;108186;1247;62569;-83
2023/03/19 05:04:43;;;;;;;56.10;28.20;;;;;;;2.99;91.81;101778.64;108160;1238;60887;-82
2023/03/19 05:07:14;;;;;;;52.70;26.50;;;;;;;3.07;91.35;101783.95;108012;1238;69547;-81
2023/03/19 05:09:45;;;;;;;60.80;28.10;;;;;;;3.15;91.11;101779.44;108154;1239;63519;-82
2023/03/19 05:12:14;;;;;;;55.40;29.00;;;;;;;3.17;91.16;101778.54;108310;1233;58890;-82
2023/03/19 05:14:46;;;;;;;57.80;29.20;;;;;;;3.14;91.83;101772.75;108196;1238;59182;-83
2023/03/19 05:17:19;;;;;;;60.20;30.50;;;;;;;3.21;92.00;101774.32;108248;1235;72770;-85
2023/03/19 05:20:05;;;;;;;62.80;32.50;;;;;;;3.23;91.73;101775.29;108164;1236;61424;-84
2023/03/19 05:22:34;;;;;;;65.50;31.90;;;;;;;3.30;91.75;101778.23;108093;1246;60139;-85
2023/03/19 05:25:04;;;;;;;54.50;29.60;;;;;;;3.33;91.59;101779.86;108151;1235;63488;-82
2023/03/19 05:27:33;;;;;;;58.10;29.70;;;;;;;3.35;91.65;101781.70;108276;1236;61289;-81
2023/03/19 05:30:08;;;;;;;59.60;30.30;;;;;;;3.40;91.43;101784.68;108004;1235;58733;-84
2023/03/19 05:32:39;;;;;;;62.90;31.60;;;;;;;3.43;91.42;101783.57;108133;1245;62134;-82
2023/03/19 05:35:13;;;;;;;58.00;29.30;;;;;;;3.46;91.68;101779.88;108122;1239;71356;-85
2023/03/19 05:37:42;;;;;;;57.30;30.60;;;;;;;3.49;91.51;101778.94;108263;1238;59528;-82
2023/03/19 05:40:12;;;;;;;56.20;30.30;;;;;;;3.53;91.66;101782.98;108066;1246;62488;-81
2023/03/19 05:42:42;;;;;;;60.90;29.40;;;;;;;3.65;91.47;101781.45;108018;1238;58965;-83
2023/03/19 05:45:11;;;;;;;58.00;30.90;;;;;;;3.72;91.12;101779.35;107999;1239;58944;-80
2023/03/19 05:47:47;;;;;;;65.90;31.60;;;;;;;3.78;91.36;101775.41;108076;1240;72727;-82
2023/03/19 05:50:17;;;;;;;58.00;29.10;;;;;;;3.85;90.91;101775.73;107869;1234;72927;-83
2023/03/19 05:53:04;;;;;;;53.90;29.60;;;;;;;3.94;90.60;101777.38;107938;1246;70326;-82
2023/03/19 05:55:34;;;;;;;56.00;28.90;;;;;;;4.01;90.27;101777.20;107940;1244;73382;-83
2023/03/19 05:58:06;;;;;;;61.10;28.30;;;;;;;4.03;90.14;101778.67;108165;1236;59911;-83
2023/03/19 06:00:36;;;;;;;52.40;28.20;;;;;;;4.13;90.24;101782.89;108194;1246;61021;-81
2023/03/19 06:03:05;;;;;;;56.40;29.50;;;;;;;4.16;89.67;101785.55;108159;1246;72668;-82
2023/03/19 06:05:42;;;;;;;60.90;29.50;;;;;;;4.23;89.39;101791.57;108135;1237;72564;-83
2023/03/19 06:08:35;;;;;;;56.00;28.70;;;;;;;4.39;88.86;101794.71;108160;1246;70319;-84
2023/03/19 06:11:17;;;;;;;52.60;28.10;;;;;;;4.47;88.67;101796.22;108183;1238;72857;-84
2023/03/19 06:13:51;;;;;;;;;;;;;;;4.50;88.33;101801.64;108331;1236;59017;-86
2023/03/19 06:16:20;;;;;;;60.00;27.30;;;;;;;4.51;88.17;101806.45;108414;1235;59012;-85
2023/03/19 06:18:53;;;;;;;54.00;28.50;;;;;;;4.52;88.21;101804.70;108279;1239;62818;-83
2023/03/19 06:21:28;;;;;;;51.50;27.50;;;;;;;4.57;88.16;101804.02;108097;1239;60889;-88
2023/03/19 06:24:00;;;;;;;50.90;24.70;;;;;;;4.72;88.21;101806.67;108254;1237;59624;-86
2023/03/19 06:26:33;;;;;;;53.60;27.40;;;;;;;4.82;87.56;101805.83;107971;1240;62422;-87
2023/03/19 06:29:03;;;;;;;47.40;25.10;;;;;;;4.85;87.41;101809.03;108017;1240;58934;-85
2023/03/19 06:31:33;;;;;;;47.70;23.80;;;;;;;4.93;87.39;101804.13;108762;1235;60343;-81
2023/03/19 06:34:48;;;;;;;45.10;24.30;;;;;;;5.09;86.57;101806.55;109914;1235;73996;-83
2023/03/19 06:37:17;;;;;;;49.00;24.80;;;;;;;5.19;86.27;101802.61;110136;1235;61600;-82
2023/03/19 06:39:48;;;;;;;45.80;25.00;;;;;;;5.25;85.84;101800.33;109633;1235;69598;-82
2023/03/19 06:42:17;;;;;;;46.30;24.80;;;;;;;5.31;85.28;101799.09;109430;1235;74576;-83
2023/03/19 06:44:46;;;;;;;46.30;25.80;;;;;;;5.49;85.38;101801.07;109645;1235;60017;-83
2023/03/19 06:47:15;;;;;;;46.90;24.70;;;;;;;5.60;84.55;101798.83;109352;1234;60940;-82
2023/03/19 06:49:44;;;;;;;47.10;25.10;;;;;;;5.71;84.19;101803.98;108459;1236;73210;-85
2023/03/19 06:52:13;;;;;;;42.60;22.70;;;;;;;5.78;84.43;101807.52;108295;1236;72501;-85
2023/03/19 06:54:41;;;;;;;46.80;25.30;;;;;;;5.72;83.68;101812.21;108291;1245;70309;-84
2023/03/19 06:57:10;;;;;;;47.10;24.70;;;;;;;5.57;84.05;101815.33;108329;1235;63502;-79
2023/03/19 06:59:39;;;;;;;40.70;21.80;;;;;;;5.70;84.18;101817.30;108426;1239;59104;-86
2023/03/19 07:02:11;;;;;;;52.40;24.50;;;;;;;5.81;83.39;101820.70;108318;1238;58886;-83
2023/03/19 07:04:40;;;;;;;48.40;25.80;;;;;;;5.79;83.63;101822.68;108322;1236;73576;-83
2023/03/19 07:07:09;;;;;;;55.40;28.90;;;;;;;5.86;83.09;101821.94;108266;1246;72526;-84
2023/03/19 07:09:37;;;;;;;43.40;23.20;;;;;;;5.81;83.02;101823.83;108203;1235;70897;-83
2023/03/19 07:12:07;;;;;;;43.80;22.80;;;;;;;5.76;83.38;101824.72;108467;1236;63709;-84
2023/03/19 07:14:36;;;;;;;42.70;23.50;;;;;;;5.91;83.29;101824.02;107829;1242;60285;-84
2023/03/19 07:17:04;;;;;;;48.40;25.40;;;;;;;5.85;83.66;101821.96;108399;1244;61560;-82
2023/03/19 07:19:35;;;;;;;48.70;24.20;;;;;;;5.94;83.35;101821.33;108184;1246;62762;-82
2023/03/19 07:22:04;;;;;;;41.00;21.70;;;;;;;6.16;82.58;101821.61;108275;1235;69040;-80
2023/03/19 07:24:33;;;;;;;35.00;20.90;;;;;;;6.06;82.05;101826.28;108259;1236;60470;-76
2023/03/19 07:27:02;;;;;;;42.30;22.00;;;;;;;6.01;82.47;101832.48;108261;1235;73782;-83
2023/03/19 07:29:31;;;;;;;37.50;20.50;;;;;;;6.22;81.94;101829.69;108017;1241;60005;-80
2023/03/19 07:31:59;;;;;;;33.10;18.00;;;;;;;6.28;81.51;101827.89;108227;1246;60509;-81
2023/03/19 07:34:28;;;;;;;33.00;16.80;;;;;;;6.05;81.28;101828.88;107969;1238;63553;-80
2023/03/19 07:36:57;;;;;;;32.90;17.50;;;;;;;5.98;81.66;101828.60;107982;1239;61647;-83
2023/03/19 07:39:26;;;;;;;33.00;18.40;;;;;;;5.92;81.63;101826.05;108138;1236;69757;-83
2023/03/19 07:41:54;;;;;;;36.60;18.30;;;;;;;5.87;81.79;101818.97;108068;1244;74453;-81
2023/03/19 07:44:23;;;;;;;35.20;19.10;;;;;;;5.95;82.14;101814.73;108136;1246;59970;-84
2023/03/19 07:46:52;;;;;;;31.50;18.00;;;;;;;6.00;81.62;101811.60;108082;1239;59010;-83
2023/03/19 07:49:22;;;;;;;32.70;18.80;;;;;;;6.03;81.12;101809.42;108063;1239;62225;-83
2023/03/19 07:51:51;;;;;;;32.70;17.70;;;;;;;6.06;80.93;101812.94;107928;1241;61959;-82
2023/03/19 07:54:22;;;;;;;31.80;17.70;;;;;;;6.21;79.47;101806.34;107933;1240;69145;-87
2023/03/19 07:56:51;;;;;;;27.90;17.20;;;;;;;6.43;78.89;101807.10;107808;1245;63760;-84
2023/03/19 07:59:20;;;;;;;32.70;16.90;;;;;;;6.47;78.10;101803.46;108037;1235;60008;-85
2023/03/19 08:01:49;;;;;;;28.70;16.50;;;;;;;6.72;76.95;101801.83;108050;1246;57482;-83
2023/03/19 08:04:20;;;;;;;24.80;13.80;;;;;;;7.00;76.74;101801.73;107967;1246;62247;-80
2023/03/19 08:06:49;;;;;;;22.90;12.20;;;;;;;6.86;73.91;101807.16;108066;1238;62621;-80
2023/03/19 08:09:18;;;;;;;24.10;14.40;;;;;;;7.00;73.94;101807.48;107913;1246;60909;-82
2023/03/19 08:11:48;;;;;;;26.10;13.20;;;;;;;7.13;73.30;101809.05;107863;1238;62577;-85
2023/03/19 08:14:21;;;;;;;21.50;11.60;;;;;;;7.07;72.76;101808.05;107875;1246;58980;-84
2023/03/19 08:16:50;;;;;;;21.70;12.30;;;;;;;7.18;71.54;101807.80;108011;1234;59448;-83
2023/03/19 08:19:19;;;;;;;20.90;11.90;;;;;;;7.18;71.72;101805.52;108080;1238;73423;-84
2023/03/19 08:21:48;;;;;;;19.60;11.80;;;;;;;7.03;71.75;101807.89;108238;1235;71694;-84
2023/03/19 08:24:18;;;;;;;22.00;12.30;;;;;;;7.06;71.58;101808.80;108335;1242;59516;-86
2023/03/19 08:26:48;;;;;;;24.20;12.10;;;;;;;7.05;71.66;101809.16;107901;1238;73967;-78
2023/03/19 08:29:18;;;;;;;23.70;13.40;;;;;;;6.98;71.96;101810.33;107988;1238;60219;-84
2023/03/19 08:31:46;;;;;;;21.60;13.90;;;;;;;6.95;72.12;101809.61;107930;1245;62052;-83
2023/03/19 08:34:15;;;;;;;25.10;13.50;;;;;;;7.10;72.23;101812.46;108155;1245;63386;-81
2023/03/19 08:36:44;;;;;;;26.50;13.70;;;;;;;7.19;72.25;101812.08;108004;1246;61560;-80
2023/03/19 08:39:14;;;;;;;25.90;13.20;;;;;;;7.34;72.30;101806.76;107963;1245;59245;-90
2023/03/19 08:41:43;;;;;;;25.40;13.30;;;;;;;7.55;71.31;101806.42;107946;1234;73836;-86
2023/03/19 08:44:12;;;;;;;22.80;13.20;;;;;;;7.49;70.65;101807.18;108146;1238;59001;-83
2023/03/19 08:46:41;;;;;;;25.00;14.00;;;;;;;7.44;71.12;101807.06;108198;1245;58998;-82
2023/03/19 08:49:10;;;;;;;24.40;13.90;;;;;;;7.35;70.92;101801.38;108174;1239;63341;-85
2023/03/19 08:51:40;;;;;;;24.60;15.70;;;;;;;7.23;70.92;101799.27;108197;1239;61655;-90
2023/03/19 08:54:10;;;;;;;26.90;15.10;;;;;;;7.52;70.96;101797.55;108502;1234;69875;-85
2023/03/19 08:56:39;;;;;;;26.20;14.80;;;;;;;7.64;70.13;101797.02;108302;1244;76091;-81
2023/03/19 08:59:08;;;;;;;24.70;13.70;;;;;;;7.66;69.92;101795.73;108250;1236;59044;-85
2023/03/19 09:01:37;;;;;;;26.30;14.40;;;;;;;7.79;69.85;101798.83;108334;1235;59021;-87
2023/03/19 09:04:06;;;;;;;24.30;14.50;;;;;;;7.51;69.66;101797.21;108165;1235;62865;-88
2023/03/19 09:06:35;;;;;;;21.50;14.00;;;;;;;7.58;70.55;101790.02;108343;1239;73265;-86
2023/03/19 09:09:05;;;;;;;45.20;16.10;;;;;;;7.47;69.92;101793.25;108337;1238;60376;-82
2023/03/19 09:11:34;;;;;;;27.70;14.50;;;;;;;7.37;70.36;101794.00;108385;1245;73084;-82
2023/03/19 09:14:03;;;;;;;20.00;12.00;;;;;;;7.50;69.45;101789.82;108333;1234;61028;-85
2023/03/19 09:16:31;;;;;;;21.60;12.80;;;;;;;7.75;68.91;101783.41;108235;1246;60738;-86
2023/03/19 09:19:02;;;;;;;22.50;12.40;;;;;;;8.03;68.78;101786.82;108145;1234;73272;-85
2023/03/19 09:21:31;;;;;;;23.50;13.20;;;;;;;7.88;68.33;101780.21;108329;1239;62182;-86
2023/03/19 09:24:01;;;;;;;23.00;12.00;;;;;;;7.72;68.26;101772.92;108392;1236;60049;-84
2023/03/19 09:26:30;;;;;;;23.90;11.20;;;;;;;7.73;68.41;101775.14;108431;1243;73105;-85
2023/03/19 09:28:59;;;;;;;20.70;11.60;;;;;;;7.67;68.28;101772.98;108200;1239;59775;-91
2023/03/19 09:31:42;;;;;;;;;;;;;;;7.81;68.35;101772.88;108284;1246;58254;-84
2023/03/19 09:34:12;;;;;;;22.80;11.90;;;;;;;7.78;68.03;101770.95;108413;1235;62219;-86
2023/03/19 09:36:41;;;;;;;21.60;12.50;;;;;;;7.86;68.15;101769.02;107985;1235;72117;-85
2023/03/19 09:39:10;;;;;;;24.60;13.40;;;;;;;7.90;68.45;101766.73;108503;1246;59729;-84
2023/03/19 09:42:15;;;;;;;19.10;11.70;;;;;;;7.91;67.75;101764.09;108412;1238;63486;-83
2023/03/19 09:44:45;;;;;;;20.90;12.20;;;;;;;8.07;67.45;101763.91;108117;1239;61200;-79
2023/03/19 09:47:38;;;;;;;21.90;12.50;;;;;;;7.99;66.96;101759.92;108414;1241;62574;-83
2023/03/19 09:50:22;;;;;;;23.80;12.40;;;;;;;7.91;67.48;101759.08;109004;1235;74893;-83
2023/03/19 09:53:05;;;;;;;20.50;11.60;;;;;;;8.12;67.22;101761.46;108994;1238;62215;-83
2023/03/19 09:55:49;;;;;;;21.90;12.10;;;;;;;8.10;66.56;101759.11;109290;1236;59917;-84
2023/03/19 09:58:30;;;;;;;23.20;12.00;;;;;;;8.04;66.53;101758.34;108655;1235;72403;-84
2023/03/19 10:01:00;;;;;;;21.70;11.90;;;;;;;8.38;65.84;101751.23;107995;1244;60960;-86
2023/03/19 10:03:30;;;;;;;20.60;12.20;;;;;;;8.56;65.38;101750.08;108270;1238;58173;-86
2023/03/19 10:06:34;;;;;;;21.00;11.10;;;;;;;8.66;64.60;101752.34;108153;1238;62930;-83
2023/03/19 10:10:11;;;;;;;21.10;11.30;;;;;;;8.54;64.53;101749.63;108721;1239;62781;-86
2023/03/19 10:13:28;;;;;;;19.10;11.30;;;;;;;8.50;64.87;101747.92;108518;1240;60328;-89
2023/03/19 10:16:00;;;;;;;24.60;12.40;;;;;;;8.67;64.93;101744.13;108488;1240;62329;-81
2023/03/19 10:18:38;;;;;;;19.90;10.80;;;;;;;8.99;63.26;101734.41;108606;1242;58902;-82
2023/03/19 10:21:19;;;;;;;22.50;10.90;;;;;;;9.11;62.69;101727.39;108949;1238;58894;-80
2023/03/19 10:23:59;;;;;;;20.80;10.70;;;;;;;9.09;61.98;101721.77;109084;1235;72787;-81
2023/03/19 10:26:34;;;;;;;21.80;11.80;;;;;;;9.11;61.86;101724.77;108185;1235;70842;-83
2023/03/19 10:29:08;;;;;;;20.20;12.10;;;;;;;8.95;62.69;101725.73;108119;1244;60731;-82
2023/03/19 10:32:08;;;;;;;19.50;11.70;;;;;;;9.03;62.26;101721.57;108015;1239;73471;-84
2023/03/19 10:34:52;;;;;;;20.70;11.40;;;;;;;9.23;61.66;101718.80;108213;1238;61000;-83
2023/03/19 10:37:25;;;;;;;20.60;11.80;;;;;;;9.79;60.87;101713.83;108293;1235;59082;-84
2023/03/19 10:40:00;;;;;;;24.00;13.00;;;;;;;9.82;59.80;101707.58;108302;1241;62205;-86
2023/03/19 10:42:55;;;;;;;21.70;13.80;;;;;;;9.84;59.93;101710.74;108088;1247;61671;-84
2023/03/19 10:45:34;;;;;;;22.50;12.40;;;;;;;9.62;60.86;101705.84;107715;1235;69407;-85
2023/03/19 10:48:14;;;;;;;24.10;12.90;;;;;;;9.91;60.31;101703.09;108061;1242;63702;-84
2023/03/19 10:51:00;;;;;;;24.70;14.20;;;;;;;9.81;60.22;101697.71;107832;1241;60016;-84
2023/03/19 10:53:41;;;;;;;20.30;12.60;;;;;;;9.76;60.34;101694.51;107915;1239;61063;-86
2023/03/19 10:56:32;;;;;;;20.80;12.10;;;;;;;9.11;61.73;101692.83;108153;1235;74401;-83
2023/03/19 10:59:40;;;;;;;28.60;15.70;;;;;;;9.25;61.90;101689.48;107924;1242;60989;-89
2023/03/19 11:02:21;;;;;;;23.80;14.20;;;;;;;9.91;60.40;101684.27;108049;1238;59920;-78
2023/03/19 11:05:21;;;;;;;22.10;14.10;;;;;;;10.31;60.18;101679.66;108077;1237;64405;-76
2023/03/19 11:08:05;;;;;;;20.00;13.30;;;;;;;10.52;57.68;101679.33;107862;1239;60444;-83
2023/03/19 11:10:35;;;;;;;21.20;13.40;;;;;;;10.60;57.51;101675.95;107764;1241;60861;-81
2023/03/19 11:13:33;;;;;;;22.00;13.40;;;;;;;10.99;55.76;101669.14;108123;1238;63372;-80
2023/03/19 11:16:04;;;;;;;21.60;13.30;;;;;;;10.90;56.21;101663.44;108242;1234;61629;-84
2023/03/19 11:18:38;;;;;;;20.90;13.30;;;;;;;10.88;55.79;101653.77;108083;1239;59986;-84
2023/03/19 11:21:21;;;;;;;23.50;13.50;;;;;;;10.22;57.72;101644.63;108011;1241;62471;-84
2023/03/19 11:24:01;;;;;;;29.20;16.20;;;;;;;10.12;58.68;101637.70;107803;1235;61255;-83
2023/03/19 11:26:30;;;;;;;22.40;13.30;;;;;;;11.08;56.94;101633.55;107944;1239;57504;-84
2023/03/19 11:29:04;;;;;;;22.70;14.30;;;;;;;11.60;55.07;101630.58;107979;1247;72679;-83
2023/03/19 11:31:45;;;;;;;21.70;13.70;;;;;;;11.63;54.74;101627.55;107699;1239;62147;-83
2023/03/19 11:34:52;;;;;;;22.50;14.00;;;;;;;11.95;53.64;101621.98;107748;1242;60900;-85
2023/03/19 11:37:46;;;;;;;19.90;13.00;;;;;;;12.87;51.29;101617.81;107654;1242;73833;-86
2023/03/19 11:40:36;;;;;;;17.80;12.20;;;;;;;12.47;50.59;101615.96;107560;1242;61153;-85